createdAt,value
2022-11-02T00:00:29.243Z,1015.00
2022-11-02T00:01:29.338Z,1015.02
2022-11-02T00:02:29.268Z,1015.03
2022-11-02T00:03:29.211Z,1015.06
2022-11-02T00:04:29.199Z,1015.06
2022-11-02T00:05:29.214Z,1015.03
2022-11-02T00:06:29.176Z,1015.04
2022-11-02T00:07:29.169Z,1015.04
2022-11-02T00:08:29.160Z,1015.02
2022-11-02T00:09:29.144Z,1015.04
2022-11-02T00:10:29.149Z,1015.05
2022-11-02T00:11:29.154Z,1015.09
2022-11-02T00:12:29.110Z,1015.10
2022-11-02T00:13:29.100Z,1015.12
2022-11-02T00:14:29.090Z,1015.11
2022-11-02T00:15:29.078Z,1015.14
2022-11-02T00:16:29.069Z,1015.10
2022-11-02T00:17:29.061Z,1015.12
2022-11-02T00:18:29.043Z,1015.08
2022-11-02T00:19:29.033Z,1015.10
2022-11-02T00:20:29.021Z,1015.04
2022-11-02T00:21:29.014Z,1015.05
2022-11-02T00:22:29.000Z,1015.07
2022-11-02T00:23:28.996Z,1015.07
2022-11-02T00:24:28.978Z,1015.05
2022-11-02T00:25:28.971Z,1015.04
2022-11-02T00:26:28.971Z,1015.07
2022-11-02T00:27:28.944Z,1015.10
2022-11-02T00:28:28.933Z,1015.08
2022-11-02T00:29:33.617Z,1015.08
2022-11-02T00:30:29.910Z,1015.08
2022-11-02T00:31:28.899Z,1015.07
2022-11-02T00:32:28.888Z,1015.10
2022-11-02T00:33:28.877Z,1015.09
2022-11-02T00:34:28.869Z,1015.04
2022-11-02T00:35:28.872Z,1015.04
2022-11-02T00:36:28.843Z,1015.00
2022-11-02T00:37:28.936Z,1015.02
2022-11-02T00:38:28.822Z,1015.03
2022-11-02T00:39:28.819Z,1015.07
2022-11-02T00:40:28.802Z,1015.05
2022-11-02T00:41:28.818Z,1015.09
2022-11-02T00:42:28.799Z,1015.12
2022-11-02T00:43:28.765Z,1015.10
2022-11-02T00:44:28.757Z,1015.09
2022-11-02T00:45:28.743Z,1015.14
2022-11-02T00:46:28.732Z,1015.15
2022-11-02T00:47:28.729Z,1015.14
2022-11-02T00:48:28.712Z,1015.15
2022-11-02T00:49:28.701Z,1015.17
2022-11-02T00:50:28.689Z,1015.13
2022-11-02T00:51:28.677Z,1015.10
2022-11-02T00:52:28.665Z,1015.11
2022-11-02T00:53:28.662Z,1015.07
2022-11-02T00:54:28.759Z,1015.10
2022-11-02T00:55:28.633Z,1015.08
2022-11-02T00:56:28.622Z,1015.10
2022-11-02T00:57:28.616Z,1015.11
2022-11-02T00:58:28.614Z,1015.07
2022-11-02T00:59:28.595Z,1015.11
2022-11-02T01:00:28.577Z,1015.11
2022-11-02T01:01:28.720Z,1015.07
2022-11-02T01:02:28.707Z,1015.11
2022-11-02T01:03:28.544Z,1015.10
2022-11-02T01:04:28.532Z,1015.11
2022-11-02T01:05:28.599Z,1015.15
2022-11-02T01:06:28.510Z,1015.15
2022-11-02T01:07:28.499Z,1015.12
2022-11-02T01:08:28.488Z,1015.10
2022-11-02T01:09:28.477Z,1015.09
2022-11-02T01:10:28.466Z,1015.08
2022-11-02T01:11:28.470Z,1015.09
2022-11-02T01:12:28.444Z,1015.12
2022-11-02T01:13:28.433Z,1015.07
2022-11-02T01:14:28.437Z,1015.01
2022-11-02T01:15:28.413Z,1014.99
2022-11-02T01:16:28.399Z,1014.99
2022-11-02T01:17:28.431Z,1014.96
2022-11-02T01:18:28.378Z,1014.95
2022-11-02T01:19:28.367Z,1014.99
2022-11-02T01:20:28.355Z,1014.96
2022-11-02T01:21:28.344Z,1014.96
2022-11-02T01:22:28.333Z,1014.99
2022-11-02T01:23:28.328Z,1015.04
2022-11-02T01:24:28.314Z,1015.00
2022-11-02T01:25:28.299Z,1015.05
2022-11-02T01:26:28.289Z,1015.02
2022-11-02T01:27:28.277Z,1015.04
2022-11-02T01:28:28.267Z,1015.09
2022-11-02T01:29:28.261Z,1015.10
2022-11-02T01:30:28.261Z,1015.14
2022-11-02T01:31:28.240Z,1015.11
2022-11-02T01:32:28.221Z,1015.15
2022-11-02T01:33:28.211Z,1015.14
2022-11-02T01:34:28.200Z,1015.12
2022-11-02T01:35:28.205Z,1015.12
2022-11-02T01:36:28.205Z,1015.06
2022-11-02T01:37:28.166Z,1015.05
2022-11-02T01:38:28.156Z,1015.07
2022-11-02T01:39:28.146Z,1015.09
2022-11-02T01:40:28.134Z,1015.06
2022-11-02T01:41:28.127Z,1015.10
2022-11-02T01:42:28.119Z,1015.07
2022-11-02T01:43:28.099Z,1015.05
2022-11-02T01:44:28.089Z,1015.08
2022-11-02T01:45:28.077Z,1015.07
2022-11-02T01:46:28.085Z,1015.07
2022-11-02T01:47:28.071Z,1015.04
2022-11-02T01:48:28.044Z,1015.07
2022-11-02T01:49:28.034Z,1015.02
2022-11-02T01:50:28.023Z,1015.03
2022-11-02T01:51:28.011Z,1015.02
2022-11-02T01:52:28.000Z,1014.99
2022-11-02T01:53:28.018Z,1014.98
2022-11-02T01:54:27.977Z,1014.92
2022-11-02T01:55:27.967Z,1014.94
2022-11-02T01:56:27.959Z,1014.90
2022-11-02T01:57:27.947Z,1014.87
2022-11-02T01:58:27.933Z,1014.89
2022-11-02T01:59:27.929Z,1014.86
2022-11-02T02:00:27.911Z,1014.85
2022-11-02T02:01:28.030Z,1014.86
2022-11-02T02:02:27.998Z,1014.86
2022-11-02T02:03:27.877Z,1014.83
2022-11-02T02:04:27.867Z,1014.83
2022-11-02T02:05:27.862Z,1014.85
2022-11-02T02:06:27.845Z,1014.82
2022-11-02T02:07:27.838Z,1014.83
2022-11-02T02:08:27.822Z,1014.83
2022-11-02T02:09:27.810Z,1014.79
2022-11-02T02:10:27.799Z,1014.80
2022-11-02T02:11:27.811Z,1014.80
2022-11-02T02:12:27.778Z,1014.77
2022-11-02T02:13:27.767Z,1014.77
2022-11-02T02:14:27.756Z,1014.78
2022-11-02T02:15:27.744Z,1014.83
2022-11-02T02:16:32.550Z,1014.84
2022-11-02T02:17:28.744Z,1014.88
2022-11-02T02:18:27.729Z,1014.86
2022-11-02T02:19:27.700Z,1014.85
2022-11-02T02:20:27.688Z,1014.84
2022-11-02T02:21:27.681Z,1014.86
2022-11-02T02:22:27.667Z,1014.82
2022-11-02T02:23:27.676Z,1014.82
2022-11-02T02:24:27.647Z,1014.81
2022-11-02T02:25:27.633Z,1014.84
2022-11-02T02:26:27.622Z,1014.82
2022-11-02T02:27:27.611Z,1014.76
2022-11-02T02:28:27.601Z,1014.78
2022-11-02T02:29:27.618Z,1014.81
2022-11-02T02:30:27.578Z,1014.80
2022-11-02T02:31:27.568Z,1014.83
2022-11-02T02:32:27.557Z,1014.81
2022-11-02T02:33:27.544Z,1014.80
2022-11-02T02:34:27.551Z,1014.82
2022-11-02T02:35:27.528Z,1014.81
2022-11-02T02:36:27.512Z,1014.75
2022-11-02T02:37:27.503Z,1014.71
2022-11-02T02:38:27.489Z,1014.75
2022-11-02T02:39:27.478Z,1014.69
2022-11-02T02:40:27.466Z,1014.69
2022-11-02T02:41:27.465Z,1014.68
2022-11-02T02:42:27.444Z,1014.70
2022-11-02T02:43:27.434Z,1014.68
2022-11-02T02:44:27.422Z,1014.67
2022-11-02T02:45:27.412Z,1014.64
2022-11-02T02:46:27.404Z,1014.69
2022-11-02T02:47:27.411Z,1014.67
2022-11-02T02:48:27.380Z,1014.68
2022-11-02T02:49:27.371Z,1014.70
2022-11-02T02:50:27.372Z,1014.71
2022-11-02T02:51:27.344Z,1014.68
2022-11-02T02:52:27.333Z,1014.69
2022-11-02T02:53:27.329Z,1014.66
2022-11-02T02:54:27.314Z,1014.63
2022-11-02T02:55:27.300Z,1014.67
2022-11-02T02:56:27.289Z,1014.64
2022-11-02T02:57:27.279Z,1014.64
2022-11-02T02:58:27.377Z,1014.70
2022-11-02T02:59:27.272Z,1014.69
2022-11-02T03:00:27.245Z,1014.64
2022-11-02T03:01:27.380Z,1014.65
2022-11-02T03:02:27.450Z,1014.69
2022-11-02T03:03:27.213Z,1014.67
2022-11-02T03:04:27.201Z,1014.70
2022-11-02T03:05:27.219Z,1014.67
2022-11-02T03:06:27.200Z,1014.65
2022-11-02T03:07:31.047Z,1014.65
2022-11-02T03:08:28.154Z,1014.68
2022-11-02T03:09:27.145Z,1014.72
2022-11-02T03:10:27.133Z,1014.69
2022-11-02T03:11:27.130Z,1014.70
2022-11-02T03:12:27.112Z,1014.68
2022-11-02T03:13:27.102Z,1014.68
2022-11-02T03:14:27.089Z,1014.70
2022-11-02T03:15:27.078Z,1014.66
2022-11-02T03:16:27.068Z,1014.63
2022-11-02T03:17:27.062Z,1014.65
2022-11-02T03:18:27.044Z,1014.61
2022-11-02T03:19:27.033Z,1014.59
2022-11-02T03:20:27.026Z,1014.62
2022-11-02T03:21:27.015Z,1014.59
2022-11-02T03:22:27.018Z,1014.62
2022-11-02T03:23:27.026Z,1014.62
2022-11-02T03:24:26.977Z,1014.62
2022-11-02T03:25:26.967Z,1014.55
2022-11-02T03:26:26.957Z,1014.57
2022-11-02T03:27:26.945Z,1014.64
2022-11-02T03:28:26.933Z,1014.63
2022-11-02T03:29:26.930Z,1014.65
2022-11-02T03:30:26.911Z,1014.69
2022-11-02T03:31:26.901Z,1014.69
2022-11-02T03:32:26.889Z,1014.68
2022-11-02T03:33:26.877Z,1014.69
2022-11-02T03:34:26.868Z,1014.72
2022-11-02T03:35:26.864Z,1014.70
2022-11-02T03:36:26.850Z,1014.73
2022-11-02T03:37:26.835Z,1014.75
2022-11-02T03:38:26.840Z,1014.77
2022-11-02T03:39:26.811Z,1014.75
2022-11-02T03:40:26.801Z,1014.73
2022-11-02T03:41:26.820Z,1014.67
2022-11-02T03:42:26.781Z,1014.71
2022-11-02T03:43:26.767Z,1014.70
2022-11-02T03:44:26.764Z,1014.70
2022-11-02T03:45:26.747Z,1014.69
2022-11-02T03:46:26.735Z,1014.69
2022-11-02T03:47:26.729Z,1014.70
2022-11-02T03:48:26.711Z,1014.71
2022-11-02T03:49:26.704Z,1014.68
2022-11-02T03:50:26.689Z,1014.68
2022-11-02T03:51:26.679Z,1014.66
2022-11-02T03:52:26.669Z,1014.69
2022-11-02T03:53:26.663Z,1014.72
2022-11-02T03:54:26.665Z,1014.69
2022-11-02T03:55:26.633Z,1014.68
2022-11-02T03:56:26.626Z,1014.65
2022-11-02T03:57:26.612Z,1014.67
2022-11-02T03:58:26.601Z,1014.64
2022-11-02T03:59:26.597Z,1014.64
2022-11-02T04:00:26.578Z,1014.65
2022-11-02T04:01:26.757Z,1014.64
2022-11-02T04:02:26.637Z,1014.66
2022-11-02T04:03:26.545Z,1014.67
2022-11-02T04:04:26.533Z,1014.64
2022-11-02T04:05:26.539Z,1014.63
2022-11-02T04:06:26.516Z,1014.62
2022-11-02T04:07:26.500Z,1014.65
2022-11-02T04:08:26.489Z,1014.64
2022-11-02T04:09:26.479Z,1014.64
2022-11-02T04:10:26.488Z,1014.63
2022-11-02T04:11:26.465Z,1014.67
2022-11-02T04:12:26.446Z,1014.65
2022-11-02T04:13:26.436Z,1014.65
2022-11-02T04:14:26.424Z,1014.60
2022-11-02T04:15:26.412Z,1014.61
2022-11-02T04:16:28.172Z,1014.59
2022-11-02T04:17:26.505Z,1014.63
2022-11-02T04:18:26.379Z,1014.61
2022-11-02T04:19:26.368Z,1014.60
2022-11-02T04:20:26.359Z,1014.61
2022-11-02T04:21:26.346Z,1014.61
2022-11-02T04:22:26.334Z,1014.64
2022-11-02T04:23:26.347Z,1014.67
2022-11-02T04:24:26.312Z,1014.68
2022-11-02T04:25:26.302Z,1014.63
2022-11-02T04:26:26.307Z,1014.62
2022-11-02T04:27:26.279Z,1014.64
2022-11-02T04:28:26.269Z,1014.63
2022-11-02T04:29:26.278Z,1014.67
2022-11-02T04:30:26.245Z,1014.62
2022-11-02T04:31:26.235Z,1014.65
2022-11-02T04:32:26.223Z,1014.62
2022-11-02T04:33:26.212Z,1014.63
2022-11-02T04:34:26.202Z,1014.61
2022-11-02T04:35:26.196Z,1014.62
2022-11-02T04:36:26.178Z,1014.63
2022-11-02T04:37:26.201Z,1014.62
2022-11-02T04:38:26.159Z,1014.58
2022-11-02T04:39:26.145Z,1014.60
2022-11-02T04:40:26.137Z,1014.59
2022-11-02T04:41:26.138Z,1014.57
2022-11-02T04:42:26.129Z,1014.54
2022-11-02T04:43:26.101Z,1014.58
2022-11-02T04:44:28.010Z,1014.58
2022-11-02T04:45:26.080Z,1014.58
2022-11-02T04:46:26.068Z,1014.59
2022-11-02T04:47:26.067Z,1014.57
2022-11-02T04:48:26.045Z,1014.59
2022-11-02T04:49:26.036Z,1014.62
2022-11-02T04:50:26.023Z,1014.65
2022-11-02T04:51:26.013Z,1014.66
2022-11-02T04:52:26.001Z,1014.66
2022-11-02T04:53:26.018Z,1014.66
2022-11-02T04:54:25.981Z,1014.70
2022-11-02T04:55:25.967Z,1014.68
2022-11-02T04:56:25.956Z,1014.70
2022-11-02T04:57:25.945Z,1014.66
2022-11-02T04:58:25.951Z,1014.69
2022-11-02T04:59:25.929Z,1014.66
2022-11-02T05:00:25.913Z,1014.66
2022-11-02T05:01:26.058Z,1014.67
2022-11-02T05:02:25.992Z,1014.64
2022-11-02T05:03:25.879Z,1014.65
2022-11-02T05:04:25.873Z,1014.63
2022-11-02T05:05:25.877Z,1014.63
2022-11-02T05:06:25.845Z,1014.63
2022-11-02T05:07:25.834Z,1014.62
2022-11-02T05:08:25.823Z,1014.63
2022-11-02T05:09:25.812Z,1014.68
2022-11-02T05:10:25.801Z,1014.65
2022-11-02T05:11:25.797Z,1014.69
2022-11-02T05:12:29.215Z,1014.67
2022-11-02T05:13:25.767Z,1014.63
2022-11-02T05:14:25.776Z,1014.64
2022-11-02T05:15:25.747Z,1014.67
2022-11-02T05:16:25.736Z,1014.62
2022-11-02T05:17:25.741Z,1014.65
2022-11-02T05:18:25.714Z,1014.65
2022-11-02T05:19:25.701Z,1014.64
2022-11-02T05:20:25.691Z,1014.67
2022-11-02T05:21:25.679Z,1014.68
2022-11-02T05:22:25.667Z,1014.65
2022-11-02T05:23:25.664Z,1014.68
2022-11-02T05:24:25.647Z,1014.68
2022-11-02T05:25:25.634Z,1014.67
2022-11-02T05:26:25.623Z,1014.68
2022-11-02T05:27:25.613Z,1014.71
2022-11-02T05:28:25.600Z,1014.69
2022-11-02T05:29:25.637Z,1014.73
2022-11-02T05:30:25.596Z,1014.73
2022-11-02T05:31:25.569Z,1014.73
2022-11-02T05:32:25.557Z,1014.73
2022-11-02T05:33:30.377Z,1014.73
2022-11-02T05:34:26.540Z,1014.72
2022-11-02T05:35:25.523Z,1014.71
2022-11-02T05:36:25.512Z,1014.70
2022-11-02T05:37:25.501Z,1014.73
2022-11-02T05:38:25.537Z,1014.69
2022-11-02T05:39:25.482Z,1014.69
2022-11-02T05:40:25.483Z,1014.69
2022-11-02T05:41:25.458Z,1014.64
2022-11-02T05:42:25.445Z,1014.67
2022-11-02T05:43:25.434Z,1014.62
2022-11-02T05:44:25.424Z,1014.64
2022-11-02T05:45:25.417Z,1014.70
2022-11-02T05:46:25.440Z,1014.69
2022-11-02T05:47:25.393Z,1014.69
2022-11-02T05:48:25.379Z,1014.73
2022-11-02T05:49:25.370Z,1014.72
2022-11-02T05:50:25.355Z,1014.68
2022-11-02T05:51:25.348Z,1014.74
2022-11-02T05:52:25.352Z,1014.72
2022-11-02T05:53:25.334Z,1014.69
2022-11-02T05:54:25.314Z,1014.70
2022-11-02T05:55:25.301Z,1014.73
2022-11-02T05:56:25.484Z,1014.70
2022-11-02T05:57:25.279Z,1014.71
2022-11-02T05:58:25.275Z,1014.68
2022-11-02T05:59:25.259Z,1014.66
2022-11-02T06:00:25.247Z,1014.63
2022-11-02T06:01:25.290Z,1014.64
2022-11-02T06:02:25.578Z,1014.60
2022-11-02T06:03:25.215Z,1014.60
2022-11-02T06:04:25.262Z,1014.62
2022-11-02T06:05:25.241Z,1014.60
2022-11-02T06:06:25.179Z,1014.64
2022-11-02T06:07:25.170Z,1014.63
2022-11-02T06:08:25.157Z,1014.65
2022-11-02T06:09:25.145Z,1014.66
2022-11-02T06:10:25.141Z,1014.73
2022-11-02T06:11:25.122Z,1014.72
2022-11-02T06:12:25.111Z,1014.70
2022-11-02T06:13:25.102Z,1014.71
2022-11-02T06:14:25.093Z,1014.72
2022-11-02T06:15:25.078Z,1014.70
2022-11-02T06:16:25.077Z,1014.73
2022-11-02T06:17:25.059Z,1014.76
2022-11-02T06:18:25.064Z,1014.75
2022-11-02T06:19:25.037Z,1014.73
2022-11-02T06:20:25.037Z,1014.74
2022-11-02T06:21:25.013Z,1014.75
2022-11-02T06:22:25.005Z,1014.75
2022-11-02T06:23:24.990Z,1014.73
2022-11-02T06:24:24.980Z,1014.77
2022-11-02T06:25:24.972Z,1014.75
2022-11-02T06:26:24.956Z,1014.80
2022-11-02T06:27:24.945Z,1014.78
2022-11-02T06:28:24.952Z,1014.74
2022-11-02T06:29:24.925Z,1014.78
2022-11-02T06:30:24.926Z,1014.77
2022-11-02T06:31:24.900Z,1014.76
2022-11-02T06:32:24.891Z,1014.78
2022-11-02T06:33:24.878Z,1014.73
2022-11-02T06:34:24.905Z,1014.77
2022-11-02T06:35:24.855Z,1014.79
2022-11-02T06:36:24.846Z,1014.81
2022-11-02T06:37:24.834Z,1014.87
2022-11-02T06:38:24.824Z,1014.82
2022-11-02T06:39:24.862Z,1014.77
2022-11-02T06:40:26.578Z,1014.74
2022-11-02T06:41:24.792Z,1014.76
2022-11-02T06:42:24.778Z,1014.82
2022-11-02T06:43:25.306Z,1014.82
2022-11-02T06:44:24.757Z,1014.82
2022-11-02T06:45:24.744Z,1014.84
2022-11-02T06:46:24.755Z,1014.84
2022-11-02T06:47:24.722Z,1014.83
2022-11-02T06:48:26.626Z,1014.80
2022-11-02T06:49:25.700Z,1014.89
2022-11-02T06:50:24.707Z,1014.91
2022-11-02T06:51:24.681Z,1014.92
2022-11-02T06:52:24.680Z,1014.97
2022-11-02T06:53:24.661Z,1014.96
2022-11-02T06:54:24.646Z,1014.94
2022-11-02T06:55:24.633Z,1014.91
2022-11-02T06:56:24.623Z,1014.92
2022-11-02T06:57:24.612Z,1014.90
2022-11-02T06:58:24.618Z,1014.95
2022-11-02T06:59:24.589Z,1015.00
2022-11-02T07:00:24.581Z,1014.97
2022-11-02T07:01:24.700Z,1014.99
2022-11-02T07:02:24.618Z,1015.06
2022-11-02T07:03:24.545Z,1015.04
2022-11-02T07:04:24.545Z,1015.04
2022-11-02T07:05:24.522Z,1015.03
2022-11-02T07:06:24.530Z,1015.05
2022-11-02T07:07:24.501Z,1015.02
2022-11-02T07:08:24.490Z,1015.05
2022-11-02T07:09:24.479Z,1015.02
2022-11-02T07:10:24.476Z,1015.03
2022-11-02T07:11:24.455Z,1015.04
2022-11-02T07:12:24.446Z,1015.03
2022-11-02T07:13:24.434Z,1015.08
2022-11-02T07:14:24.422Z,1015.06
2022-11-02T07:15:24.415Z,1015.02
2022-11-02T07:16:24.408Z,1015.06
2022-11-02T07:17:28.249Z,1015.00
2022-11-02T07:18:25.376Z,1015.00
2022-11-02T07:19:24.368Z,1014.98
2022-11-02T07:20:24.356Z,1014.94
2022-11-02T07:21:24.351Z,1014.92
2022-11-02T07:22:24.365Z,1015.02
2022-11-02T07:23:24.420Z,1014.90
2022-11-02T07:24:24.311Z,1014.96
2022-11-02T07:25:24.302Z,1014.98
2022-11-02T07:26:24.294Z,1014.98
2022-11-02T07:27:24.283Z,1014.94
2022-11-02T07:28:24.273Z,1015.00
2022-11-02T07:29:24.255Z,1014.97
2022-11-02T07:30:24.246Z,1015.00
2022-11-02T07:31:24.235Z,1015.02
2022-11-02T07:32:24.224Z,1015.00
2022-11-02T07:33:24.213Z,1015.04
2022-11-02T07:34:24.223Z,1014.99
2022-11-02T07:35:24.198Z,1014.98
2022-11-02T07:36:24.180Z,1014.94
2022-11-02T07:37:24.168Z,1014.91
2022-11-02T07:38:24.174Z,1014.92
2022-11-02T07:39:24.147Z,1014.96
2022-11-02T07:40:24.150Z,1014.94
2022-11-02T07:41:24.125Z,1015.02
2022-11-02T07:42:24.113Z,1015.06
2022-11-02T07:43:24.101Z,1015.06
2022-11-02T07:44:24.091Z,1015.05
2022-11-02T07:45:24.079Z,1015.10
2022-11-02T07:46:24.084Z,1015.02
2022-11-02T07:47:24.056Z,1014.99
2022-11-02T07:48:24.046Z,1015.01
2022-11-02T07:49:24.035Z,1015.02
2022-11-02T07:50:24.023Z,1015.05
2022-11-02T07:51:24.012Z,1015.08
2022-11-02T07:52:24.007Z,1015.10
2022-11-02T07:53:23.992Z,1015.08
2022-11-02T07:54:23.995Z,1015.14
2022-11-02T07:55:23.967Z,1015.12
2022-11-02T07:56:23.956Z,1015.09
2022-11-02T07:57:23.946Z,1015.03
2022-11-02T07:58:23.966Z,1015.08
2022-11-02T07:59:23.924Z,1015.08
2022-11-02T08:00:23.913Z,1014.98
2022-11-02T08:01:23.942Z,1015.04
2022-11-02T08:02:24.030Z,1015.11
2022-11-02T08:03:23.922Z,1015.10
2022-11-02T08:04:23.883Z,1015.09
2022-11-02T08:05:23.858Z,1015.00
2022-11-02T08:06:23.846Z,1015.09
2022-11-02T08:07:23.835Z,1015.18
2022-11-02T08:08:23.827Z,1015.16
2022-11-02T08:09:23.814Z,1015.09
2022-11-02T08:10:23.827Z,1015.09
2022-11-02T08:11:23.792Z,1015.11
2022-11-02T08:12:23.780Z,1015.10
2022-11-02T08:13:23.769Z,1015.09
2022-11-02T08:14:23.764Z,1015.11
2022-11-02T08:15:23.747Z,1015.07
2022-11-02T08:16:23.741Z,1015.07
2022-11-02T08:17:23.724Z,1015.06
2022-11-02T08:18:23.712Z,1015.01
2022-11-02T08:19:23.704Z,1015.01
2022-11-02T08:20:23.691Z,1015.00
2022-11-02T08:21:23.680Z,1015.18
2022-11-02T08:22:23.674Z,1015.12
2022-11-02T08:23:23.658Z,1015.07
2022-11-02T08:24:23.647Z,1014.96
2022-11-02T08:25:23.639Z,1015.04
2022-11-02T08:26:23.643Z,1015.07
2022-11-02T08:27:23.617Z,1015.04
2022-11-02T08:28:23.610Z,1015.08
2022-11-02T08:29:23.592Z,1015.14
2022-11-02T08:30:23.584Z,1015.11
2022-11-02T08:31:23.569Z,1015.16
2022-11-02T08:32:23.557Z,1015.16
2022-11-02T08:33:23.549Z,1015.16
2022-11-02T08:34:23.544Z,1015.10
2022-11-02T08:35:23.525Z,1015.09
2022-11-02T08:36:23.513Z,1015.17
2022-11-02T08:37:23.502Z,1015.23
2022-11-02T08:38:23.491Z,1015.19
2022-11-02T08:39:23.482Z,1015.25
2022-11-02T08:40:23.516Z,1015.24
2022-11-02T08:41:23.458Z,1015.25
2022-11-02T08:42:23.465Z,1015.15
2022-11-02T08:43:23.436Z,1015.12
2022-11-02T08:44:23.425Z,1015.17
2022-11-02T08:45:23.417Z,1015.14
2022-11-02T08:46:23.413Z,1015.19
2022-11-02T08:47:23.393Z,1015.12
2022-11-02T08:48:23.383Z,1015.11
2022-11-02T08:49:23.369Z,1015.19
2022-11-02T08:50:23.435Z,1015.15
2022-11-02T08:51:23.347Z,1015.17
2022-11-02T08:52:23.341Z,1015.12
2022-11-02T08:53:23.324Z,1015.12
2022-11-02T08:54:23.314Z,1015.17
2022-11-02T08:55:23.302Z,1015.09
2022-11-02T08:56:23.291Z,1015.09
2022-11-02T08:57:23.282Z,1015.08
2022-11-02T08:58:23.295Z,1015.08
2022-11-02T08:59:23.258Z,1015.13
2022-11-02T09:00:23.315Z,1015.10
2022-11-02T09:01:23.337Z,1015.14
2022-11-02T09:02:23.327Z,1015.18
2022-11-02T09:03:26.483Z,1015.15
2022-11-02T09:04:23.218Z,1015.13
2022-11-02T09:05:23.193Z,1015.16
2022-11-02T09:06:23.180Z,1015.16
2022-11-02T09:07:23.170Z,1015.15
2022-11-02T09:09:23.147Z,1015.17
2022-11-02T09:10:23.190Z,1015.17
2022-11-02T09:11:23.125Z,1015.14
2022-11-02T09:12:23.115Z,1015.14
2022-11-02T09:13:23.103Z,1015.18
2022-11-02T09:14:23.268Z,1015.13
2022-11-02T09:15:23.080Z,1015.13
2022-11-02T09:16:23.076Z,1015.14
2022-11-02T09:17:23.060Z,1015.15
2022-11-02T09:18:23.048Z,1015.17
2022-11-02T09:19:23.037Z,1015.12
2022-11-02T09:20:23.121Z,1015.13
2022-11-02T09:21:23.016Z,1015.16
2022-11-02T09:22:23.011Z,1015.18
2022-11-02T09:23:22.992Z,1015.19
2022-11-02T09:24:22.981Z,1015.16
2022-11-02T09:25:22.970Z,1015.18
2022-11-02T09:26:22.959Z,1015.18
2022-11-02T09:27:22.948Z,1015.23
2022-11-02T09:28:22.943Z,1015.20
2022-11-02T09:30:22.932Z,1015.23
2022-11-02T09:31:22.903Z,1015.22
2022-11-02T09:32:22.892Z,1015.22
2022-11-02T09:33:22.887Z,1015.20
2022-11-02T09:34:22.876Z,1015.19
2022-11-02T09:35:22.862Z,1015.14
2022-11-02T09:36:22.848Z,1015.19
2022-11-02T09:37:22.840Z,1015.18
2022-11-02T09:38:22.827Z,1015.19
2022-11-02T09:39:22.816Z,1015.16
2022-11-02T09:40:22.811Z,1015.16
2022-11-02T09:41:22.793Z,1015.17
2022-11-02T09:42:22.784Z,1015.18
2022-11-02T09:43:22.771Z,1015.17
2022-11-02T09:44:22.760Z,1015.18
2022-11-02T09:45:22.749Z,1015.20
2022-11-02T09:46:23.190Z,1015.22
2022-11-02T09:48:28.388Z,1015.19
2022-11-02T09:49:23.703Z,1015.22
2022-11-02T09:50:22.877Z,1015.25
2022-11-02T09:51:22.688Z,1015.28
2022-11-02T09:52:22.690Z,1015.28
2022-11-02T09:53:22.664Z,1015.37
2022-11-02T09:54:22.648Z,1015.27
2022-11-02T09:55:22.638Z,1015.32
2022-11-02T09:56:22.654Z,1015.32
2022-11-02T09:57:22.616Z,1015.30
2022-11-02T09:58:22.615Z,1015.35
2022-11-02T09:59:22.598Z,1015.35
2022-11-02T10:00:22.582Z,1015.27
2022-11-02T10:01:22.650Z,1015.33
2022-11-02T10:02:22.656Z,1015.40
2022-11-02T10:03:22.549Z,1015.37
2022-11-02T10:04:22.545Z,1015.29
2022-11-02T10:05:22.527Z,1015.40
2022-11-02T10:06:22.515Z,1015.34
2022-11-02T10:07:22.508Z,1015.32
2022-11-02T10:08:22.493Z,1015.24
2022-11-02T10:09:22.483Z,1015.26
2022-11-02T10:10:22.481Z,1015.28
2022-11-02T10:11:22.462Z,1015.29
2022-11-02T10:12:22.450Z,1015.28
2022-11-02T10:13:22.453Z,1015.28
2022-11-02T10:14:22.428Z,1015.25
2022-11-02T10:15:22.424Z,1015.26
2022-11-02T10:16:22.412Z,1015.31
2022-11-02T10:17:22.395Z,1015.33
2022-11-02T10:18:22.405Z,1015.31
2022-11-02T10:19:26.348Z,1015.28
2022-11-02T10:20:23.360Z,1015.25
2022-11-02T10:21:22.350Z,1015.25
2022-11-02T10:22:22.346Z,1015.27
2022-11-02T10:23:22.329Z,1015.30
2022-11-02T10:24:22.323Z,1015.22
2022-11-02T10:25:22.307Z,1015.22
2022-11-02T10:26:22.297Z,1015.28
2022-11-02T10:27:22.285Z,1015.24
2022-11-02T10:28:22.373Z,1015.26
2022-11-02T10:29:22.262Z,1015.19
2022-11-02T10:30:22.258Z,1015.25
2022-11-02T10:31:22.240Z,1015.25
2022-11-02T10:32:22.229Z,1015.29
2022-11-02T10:33:22.224Z,1015.27
2022-11-02T10:34:22.231Z,1015.30
2022-11-02T10:35:51.478Z,1015.29
2022-11-02T10:36:23.191Z,1015.33
2022-11-02T10:37:22.174Z,1015.33
2022-11-02T10:38:22.170Z,1015.33
2022-11-02T10:39:22.156Z,1015.32
2022-11-02T10:40:22.152Z,1015.35
2022-11-02T10:41:22.130Z,1015.34
2022-11-02T10:42:22.153Z,1015.32
2022-11-02T10:43:22.108Z,1015.36
2022-11-02T10:44:22.102Z,1015.31
2022-11-02T10:45:22.086Z,1015.29
2022-11-02T10:46:22.099Z,1015.39
2022-11-02T10:47:22.067Z,1015.35
2022-11-02T10:48:22.053Z,1015.35
2022-11-02T10:49:22.044Z,1015.39
2022-11-02T10:50:22.049Z,1015.28
2022-11-02T10:51:22.019Z,1015.30
2022-11-02T10:52:22.016Z,1015.27
2022-11-02T10:53:50.877Z,1015.39
2022-11-02T10:54:29.338Z,1015.48
2022-11-02T10:55:22.975Z,1015.42
2022-11-02T10:56:21.965Z,1015.48
2022-11-02T10:57:21.955Z,1015.41
2022-11-02T10:58:21.950Z,1015.40
2022-11-02T10:59:21.931Z,1015.41
2022-11-02T11:00:21.922Z,1015.44
2022-11-02T11:01:22.057Z,1015.40
2022-11-02T11:02:21.899Z,1015.42
2022-11-02T11:03:21.887Z,1015.41
2022-11-02T11:04:21.884Z,1015.37
2022-11-02T11:05:21.868Z,1015.37
2022-11-02T11:06:21.875Z,1015.42
2022-11-02T11:07:21.845Z,1015.41
2022-11-02T11:08:21.833Z,1015.46
2022-11-02T11:09:21.824Z,1015.38
2022-11-02T11:10:21.817Z,1015.44
2022-11-02T11:11:21.801Z,1015.47
2022-11-02T11:12:21.791Z,1015.46
2022-11-02T11:16:25.635Z,1015.47
2022-11-02T11:19:38.753Z,1015.57
2022-11-02T11:20:22.705Z,1015.50
2022-11-02T11:21:21.698Z,1015.59
2022-11-02T11:22:21.697Z,1015.62
2022-11-02T11:23:21.669Z,1015.67
2022-11-02T11:24:21.736Z,1015.67
2022-11-02T11:25:26.796Z,1015.71
2022-11-02T11:26:22.641Z,1015.60
2022-11-02T11:27:21.625Z,1015.64
2022-11-02T11:28:21.612Z,1015.72
2022-11-02T11:29:21.601Z,1015.67
2022-11-02T11:30:46.169Z,1015.74
2022-11-02T11:31:22.585Z,1015.68
2022-11-02T11:32:24.605Z,1015.62
2022-11-02T11:33:22.560Z,1015.79
2022-11-02T11:34:21.548Z,1015.70
2022-11-02T11:35:21.536Z,1015.72
2022-11-02T11:36:21.569Z,1015.66
2022-11-02T11:37:21.519Z,1015.66
2022-11-02T11:38:21.533Z,1015.64
2022-11-02T11:39:21.492Z,1015.78
2022-11-02T11:40:21.483Z,1015.78
2022-11-02T11:41:21.471Z,1015.76
2022-11-02T11:42:21.460Z,1015.65
2022-11-02T11:43:21.449Z,1015.63
2022-11-02T11:44:21.448Z,1015.62
2022-11-02T11:45:21.427Z,1015.65
2022-11-02T11:46:21.416Z,1015.64
2022-11-02T11:47:21.405Z,1015.65
2022-11-02T11:48:21.397Z,1015.81
2022-11-02T11:49:27.489Z,1015.69
2022-11-02T11:50:25.989Z,1015.64
2022-11-02T11:51:25.391Z,1015.81
2022-11-02T11:52:23.511Z,1015.77
2022-11-02T11:53:21.339Z,1015.67
2022-11-02T11:54:21.353Z,1015.66
2022-11-02T11:55:21.316Z,1015.63
2022-11-02T11:56:21.312Z,1015.59
2022-11-02T11:57:21.334Z,1015.61
2022-11-02T11:58:21.292Z,1015.74
2022-11-02T11:59:21.273Z,1015.63
2022-11-02T12:00:21.262Z,1015.56
2022-11-02T12:01:21.340Z,1015.66
2022-11-02T12:02:21.360Z,1015.63
2022-11-02T12:03:21.318Z,1015.56
2022-11-02T12:04:21.217Z,1015.59
2022-11-02T12:05:21.206Z,1015.52
2022-11-02T12:06:21.199Z,1015.54
2022-11-02T12:07:21.185Z,1015.56
2022-11-02T12:08:21.179Z,1015.55
2022-11-02T12:09:21.162Z,1015.55
2022-11-02T12:10:21.174Z,1015.52
2022-11-02T12:11:21.143Z,1015.44
2022-11-02T12:12:21.134Z,1015.47
2022-11-02T12:13:21.118Z,1015.47